< < Back
Terminal Aerodrome Forecast


Current Version              Previous Versions:   1  2  3  4  5  6  7  8  9  

Terminal Aerodrome Forecast

747
FTUS42 KFFC 312339
TAFPDK
TAF
KPDK 312339Z 0100/0124 00000KT P6SM SCT060
     FM011500 07003KT P6SM SCT040 SCT250
     FM011900 12005KT P6SM BKN050=



Latest METAR

915
SAUS70 KWBC 011800 RRM
MTRPDK
METAR KPDK 011753Z 08003KT 10SM FEW065 30/19 A3013 RMK AO2 SLP185
T03000194 10311 20206 56011


USA.gov is the U.S. government's official web portal to all federal, state and local government web resources and services.